createdAt,value
2023-04-22T00:00:14.919Z,100.00
2023-04-22T00:02:41.586Z,100.00
2023-04-22T00:05:08.726Z,100.00
2023-04-22T00:07:35.319Z,100.00
2023-04-22T00:10:01.815Z,100.00
2023-04-22T00:12:28.215Z,100.00
2023-04-22T00:14:54.627Z,100.00
2023-04-22T00:17:21.107Z,100.00
2023-04-22T00:19:47.587Z,100.00
2023-04-22T00:22:13.997Z,100.00
2023-04-22T00:24:40.797Z,100.00
2023-04-22T00:27:08.008Z,100.00
2023-04-22T00:29:34.412Z,100.00
2023-04-22T00:32:00.808Z,100.00
2023-04-22T00:34:27.204Z,100.00
2023-04-22T00:36:53.630Z,100.00
2023-04-22T00:39:20.045Z,100.00
2023-04-22T00:41:46.983Z,100.00
2023-04-22T00:44:13.489Z,100.00
2023-04-22T00:46:40.259Z,100.00
2023-04-22T00:49:07.819Z,100.00
2023-04-22T00:51:34.432Z,100.00
2023-04-22T00:54:04.652Z,100.00
2023-04-22T00:56:31.917Z,100.00
2023-04-22T00:58:59.519Z,100.00
2023-04-22T01:01:26.560Z,100.00
2023-04-22T01:03:53.820Z,100.00
2023-04-22T01:06:20.510Z,100.00
2023-04-22T01:08:47.687Z,100.00
2023-04-22T01:11:14.414Z,100.00
2023-04-22T01:13:41.239Z,100.00
2023-04-22T01:16:09.059Z,100.00
2023-04-22T01:18:36.396Z,100.00
2023-04-22T01:21:03.202Z,100.00
2023-04-22T01:23:30.166Z,100.00
2023-04-22T01:25:57.469Z,100.00
2023-04-22T01:28:24.619Z,100.00
2023-04-22T01:30:51.595Z,100.00
2023-04-22T01:33:18.619Z,100.00
2023-04-22T01:35:46.256Z,100.00
2023-04-22T01:38:13.191Z,100.00
2023-04-22T01:40:39.956Z,100.00
2023-04-22T01:43:06.591Z,100.00
2023-04-22T01:45:33.248Z,100.00
2023-04-22T01:47:59.771Z,100.00
2023-04-22T01:50:26.327Z,100.00
2023-04-22T01:52:53.410Z,100.00
2023-04-22T01:55:19.817Z,100.00
2023-04-22T01:57:46.255Z,100.00
2023-04-22T02:00:13.108Z,100.00
2023-04-22T02:02:40.034Z,100.00
2023-04-22T02:05:07.926Z,100.00
2023-04-22T02:07:36.307Z,100.00
2023-04-22T02:10:05.102Z,100.00
2023-04-22T02:12:32.274Z,100.00
2023-04-22T02:14:59.265Z,100.00
2023-04-22T02:17:25.858Z,100.00
2023-04-22T02:19:52.269Z,100.00
2023-04-22T02:22:18.710Z,100.00
2023-04-22T02:24:45.268Z,100.00
2023-04-22T02:27:11.786Z,100.00
2023-04-22T02:29:38.826Z,100.00
2023-04-22T02:32:05.452Z,100.00
2023-04-22T02:34:31.888Z,100.00
2023-04-22T02:36:58.320Z,100.00
2023-04-22T02:39:25.765Z,100.00
2023-04-22T02:41:52.183Z,100.00
2023-04-22T02:44:18.641Z,100.00
2023-04-22T02:46:45.198Z,100.00
2023-04-22T02:49:11.663Z,100.00
2023-04-22T02:51:39.153Z,100.00
2023-04-22T02:54:05.658Z,100.00
2023-04-22T02:56:32.050Z,100.00
2023-04-22T02:58:58.446Z,100.00
2023-04-22T03:01:24.970Z,100.00
2023-04-22T03:03:51.528Z,100.00
2023-04-22T03:06:18.384Z,100.00
2023-04-22T03:08:44.798Z,100.00
2023-04-22T03:11:11.207Z,100.00
2023-04-22T03:13:37.604Z,100.00
2023-04-22T03:16:04.056Z,100.00
2023-04-22T03:18:30.515Z,100.00
2023-04-22T03:20:57.011Z,100.00
2023-04-22T03:23:23.428Z,100.00
2023-04-22T03:25:49.837Z,100.00
2023-04-22T03:28:16.212Z,100.00
2023-04-22T03:30:42.609Z,100.00
2023-04-22T03:33:09.275Z,100.00
2023-04-22T03:35:35.673Z,100.00
2023-04-22T03:38:02.095Z,100.00
2023-04-22T03:40:28.476Z,100.00
2023-04-22T03:42:54.982Z,100.00
2023-04-22T03:45:21.542Z,100.00
2023-04-22T03:47:47.987Z,100.00
2023-04-22T03:50:14.400Z,100.00
2023-04-22T03:52:40.800Z,100.00
2023-04-22T03:55:07.558Z,100.00
2023-04-22T03:57:33.994Z,100.00
2023-04-22T04:00:00.474Z,100.00
2023-04-22T04:02:27.040Z,100.00
2023-04-22T04:04:53.835Z,100.00
2023-04-22T04:07:20.676Z,100.00
2023-04-22T04:09:47.091Z,100.00
2023-04-22T04:12:13.486Z,100.00
2023-04-22T04:14:39.924Z,100.00
2023-04-22T04:17:10.104Z,100.00
2023-04-22T04:19:38.189Z,100.00
2023-04-22T04:22:05.064Z,100.00
2023-04-22T04:24:31.504Z,100.00
2023-04-22T04:26:58.072Z,100.00
2023-04-22T04:29:25.185Z,100.00
2023-04-22T04:31:51.850Z,100.00
2023-04-22T04:34:19.127Z,100.00
2023-04-22T04:36:46.443Z,100.00
2023-04-22T04:39:12.865Z,100.00
2023-04-22T04:41:41.158Z,100.00
2023-04-22T04:44:07.542Z,100.00
2023-04-22T04:46:34.692Z,100.00
2023-04-22T04:49:02.519Z,100.00
2023-04-22T04:51:28.949Z,100.00
2023-04-22T04:53:55.551Z,100.00
2023-04-22T04:56:21.932Z,100.00
2023-04-22T04:58:48.378Z,100.00
2023-04-22T05:01:14.831Z,100.00
2023-04-22T05:03:41.382Z,100.00
2023-04-22T05:06:08.032Z,100.00
2023-04-22T05:08:34.589Z,100.00
2023-04-22T05:11:00.980Z,100.00
2023-04-22T05:13:27.692Z,100.00
2023-04-22T05:15:54.112Z,100.00
2023-04-22T05:18:21.782Z,100.00
2023-04-22T05:20:48.308Z,100.00
2023-04-22T05:23:14.750Z,100.00
2023-04-22T05:25:41.229Z,100.00
2023-04-22T05:28:07.682Z,100.00
2023-04-22T05:30:34.150Z,100.00
2023-04-22T05:33:00.652Z,100.00
2023-04-22T05:35:27.363Z,100.00
2023-04-22T05:37:53.767Z,100.00
2023-04-22T05:40:20.280Z,100.00
2023-04-22T05:42:46.677Z,100.00
2023-04-22T05:45:13.292Z,100.00
2023-04-22T05:47:39.718Z,100.00
2023-04-22T05:50:06.889Z,100.00
2023-04-22T05:52:33.299Z,100.00
2023-04-22T05:54:59.736Z,100.00
2023-04-22T05:57:26.154Z,100.00
2023-04-22T05:59:52.635Z,100.00
2023-04-22T06:02:19.159Z,100.00
2023-04-22T06:04:46.059Z,100.00
2023-04-22T06:07:12.730Z,100.00
2023-04-22T06:09:39.379Z,100.00
2023-04-22T06:12:06.225Z,100.00
2023-04-22T06:14:32.627Z,100.00
2023-04-22T06:16:59.541Z,100.00
2023-04-22T06:19:26.054Z,100.00
2023-04-22T06:21:52.891Z,100.00
2023-04-22T06:24:19.460Z,100.00
2023-04-22T06:26:45.941Z,100.00
2023-04-22T06:29:12.401Z,100.00
2023-04-22T06:31:38.990Z,100.00
2023-04-22T06:34:05.860Z,100.00
2023-04-22T06:36:37.170Z,100.00
2023-04-22T06:39:05.396Z,100.00
2023-04-22T06:41:32.913Z,100.00
2023-04-22T06:43:59.599Z,100.00
2023-04-22T06:46:26.028Z,100.00
2023-04-22T06:48:56.682Z,100.00
2023-04-22T06:51:23.102Z,100.00
2023-04-22T06:53:49.568Z,100.00
2023-04-22T06:56:16.111Z,100.00
2023-04-22T06:58:42.529Z,100.00
2023-04-22T07:01:09.140Z,100.00
2023-04-22T07:03:36.034Z,100.00
2023-04-22T07:06:02.772Z,100.00
2023-04-22T07:08:29.257Z,100.00
2023-04-22T07:10:57.787Z,100.00
2023-04-22T07:13:24.249Z,100.00
2023-04-22T07:15:50.654Z,100.00
2023-04-22T07:18:17.068Z,100.00
2023-04-22T07:20:43.489Z,100.00
2023-04-22T07:23:09.918Z,100.00
2023-04-22T07:25:36.436Z,100.00
2023-04-22T07:28:02.917Z,100.00
2023-04-22T07:30:29.339Z,100.00
2023-04-22T07:32:55.802Z,100.00
2023-04-22T07:35:22.344Z,100.00
2023-04-22T07:37:48.825Z,100.00
2023-04-22T07:40:15.346Z,100.00
2023-04-22T07:42:41.903Z,100.00
2023-04-22T07:45:09.688Z,100.00
2023-04-22T07:47:36.231Z,100.00
2023-04-22T07:50:03.047Z,100.00
2023-04-22T07:52:30.078Z,100.00
2023-04-22T07:54:56.692Z,100.00
2023-04-22T07:57:23.959Z,100.00
2023-04-22T07:59:52.039Z,100.00
2023-04-22T08:02:18.736Z,100.00
2023-04-22T08:04:45.278Z,100.00
2023-04-22T08:09:41.367Z,100.00
2023-04-22T08:12:07.900Z,100.00
2023-04-22T08:14:34.360Z,100.00
2023-04-22T08:17:00.758Z,100.00
2023-04-22T08:19:27.144Z,100.00
2023-04-22T08:21:53.570Z,100.00
2023-04-22T08:24:20.038Z,100.00
2023-04-22T08:26:46.491Z,100.00
2023-04-22T08:29:13.575Z,100.00
2023-04-22T08:31:40.063Z,100.00
2023-04-22T08:34:06.742Z,100.00
2023-04-22T08:36:33.280Z,100.00
2023-04-22T08:38:59.786Z,100.00
2023-04-22T08:41:26.448Z,100.00
2023-04-22T08:43:53.523Z,100.00
2023-04-22T08:46:20.247Z,100.00
2023-04-22T08:48:50.760Z,100.00
2023-04-22T08:51:17.837Z,100.00
2023-04-22T08:53:44.887Z,100.00
2023-04-22T08:56:14.900Z,100.00
2023-04-22T08:58:42.224Z,100.00
2023-04-22T09:01:09.405Z,100.00
2023-04-22T09:03:39.124Z,100.00
2023-04-22T09:06:06.574Z,100.00
2023-04-22T09:08:33.561Z,100.00
2023-04-22T09:11:00.277Z,100.00
2023-04-22T09:13:27.685Z,100.00
2023-04-22T09:15:54.151Z,100.00
2023-04-22T09:18:23.118Z,100.00
2023-04-22T09:20:54.300Z,100.00
2023-04-22T09:23:20.841Z,100.00
2023-04-22T09:25:47.913Z,100.00
2023-04-22T09:28:18.978Z,100.00
2023-04-22T09:30:46.291Z,100.00
2023-04-22T09:33:14.044Z,100.00
2023-04-22T09:35:42.372Z,100.00
2023-04-22T09:38:11.201Z,100.00
2023-04-22T09:40:43.080Z,100.00
2023-04-22T09:43:10.799Z,100.00
2023-04-22T09:45:39.361Z,100.00
2023-04-22T09:48:22.623Z,100.00
2023-04-22T09:50:59.471Z,100.00
2023-04-22T09:53:30.310Z,100.00
2023-04-22T09:55:56.969Z,100.00
2023-04-22T09:58:28.072Z,100.00
2023-04-22T10:00:57.530Z,100.00
2023-04-22T10:03:24.514Z,100.00
2023-04-22T10:05:51.247Z,100.00
2023-04-22T10:08:17.802Z,100.00
2023-04-22T10:10:44.788Z,100.00
2023-04-22T10:13:11.875Z,100.00
2023-04-22T10:15:50.532Z,100.00
2023-04-22T10:18:21.671Z,100.00
2023-04-22T10:20:49.966Z,100.00
2023-04-22T10:23:22.067Z,100.00
2023-04-22T10:25:57.639Z,100.00
2023-04-22T10:28:28.526Z,100.00
2023-04-22T10:30:55.034Z,100.00
2023-04-22T10:33:21.598Z,100.00
2023-04-22T10:36:06.224Z,100.00
2023-04-22T10:38:40.404Z,100.00
2023-04-22T10:41:07.494Z,100.00
2023-04-22T10:43:48.015Z,100.00
2023-04-22T10:46:32.919Z,100.00
2023-04-22T10:49:06.860Z,100.00
2023-04-22T10:51:47.723Z,100.00
2023-04-22T10:54:28.073Z,100.00
2023-04-22T10:57:19.160Z,100.00
2023-04-22T10:59:53.193Z,100.00
2023-04-22T11:02:21.131Z,100.00
2023-04-22T11:04:48.436Z,100.00
2023-04-22T11:07:22.693Z,100.00
2023-04-22T11:09:51.926Z,100.00
2023-04-22T11:12:39.667Z,99.72
2023-04-22T11:15:16.162Z,100.00
2023-04-22T11:17:44.485Z,100.00
2023-04-22T11:20:18.570Z,100.00
2023-04-22T11:22:56.069Z,100.00
2023-04-22T11:25:24.710Z,100.00
2023-04-22T11:27:52.660Z,100.00
2023-04-22T11:30:21.656Z,100.00
2023-04-22T11:32:51.388Z,100.00
2023-04-22T11:35:20.584Z,100.00
2023-04-22T11:37:52.503Z,100.00
2023-04-22T11:40:30.548Z,100.00
2023-04-22T11:43:01.196Z,100.00
2023-04-22T11:45:30.067Z,99.02
2023-04-22T11:47:56.967Z,97.12
2023-04-22T11:50:29.608Z,100.00
2023-04-22T11:52:57.023Z,100.00
2023-04-22T11:55:35.318Z,100.00
2023-04-22T11:58:05.330Z,97.71
2023-04-22T12:00:37.078Z,98.19
2023-04-22T12:03:24.714Z,96.91
2023-04-22T12:05:58.338Z,99.79
2023-04-22T12:08:31.372Z,97.92
2023-04-22T12:11:00.540Z,97.50
2023-04-22T12:13:33.018Z,96.97
2023-04-22T12:16:06.925Z,95.78
2023-04-22T12:18:38.414Z,96.33
2023-04-22T12:21:04.761Z,96.89
2023-04-22T12:23:50.736Z,95.81
2023-04-22T12:26:18.614Z,96.47
2023-04-22T12:28:46.110Z,95.67
2023-04-22T12:31:14.710Z,96.24
2023-04-22T12:33:41.571Z,96.77
2023-04-22T12:36:08.102Z,96.48
2023-04-22T12:38:34.934Z,94.70
2023-04-22T12:41:02.674Z,95.13
2023-04-22T12:43:29.197Z,95.44
2023-04-22T12:45:57.017Z,90.65
2023-04-22T12:48:23.478Z,90.12
2023-04-22T12:50:50.011Z,90.74
2023-04-22T12:53:16.632Z,89.08
2023-04-22T12:55:45.919Z,89.21
2023-04-22T12:58:12.773Z,90.23
2023-04-22T13:00:39.176Z,90.30
2023-04-22T13:03:05.757Z,91.42
2023-04-22T13:05:32.695Z,91.13
2023-04-22T13:08:06.650Z,91.07
2023-04-22T13:10:34.985Z,88.94
2023-04-22T13:13:17.072Z,89.60
2023-04-22T13:15:54.053Z,88.89
2023-04-22T13:18:23.491Z,89.51
2023-04-22T13:20:50.087Z,88.04
2023-04-22T13:23:17.182Z,90.27
2023-04-22T13:25:44.196Z,89.81
2023-04-22T13:28:11.479Z,90.54
2023-04-22T13:30:38.568Z,91.57
2023-04-22T13:33:04.989Z,90.69
2023-04-22T13:35:31.522Z,90.83
2023-04-22T13:37:58.170Z,90.69
2023-04-22T13:40:26.614Z,88.77
2023-04-22T13:42:53.530Z,87.07
2023-04-22T13:45:20.068Z,86.39
2023-04-22T13:47:46.947Z,86.44
2023-04-22T13:50:13.423Z,87.25
2023-04-22T13:52:39.957Z,85.53
2023-04-22T13:55:06.887Z,85.42
2023-04-22T13:57:33.277Z,85.63
2023-04-22T14:00:00.075Z,85.74
2023-04-22T14:02:26.659Z,84.00
2023-04-22T14:04:53.197Z,83.62
2023-04-22T14:07:19.741Z,83.70
2023-04-22T14:09:46.135Z,82.84
2023-04-22T14:12:12.876Z,82.39
2023-04-22T14:14:39.480Z,82.90
2023-04-22T14:17:06.004Z,81.16
2023-04-22T14:19:32.737Z,81.47
2023-04-22T14:21:59.240Z,80.78
2023-04-22T14:24:25.957Z,80.29
2023-04-22T14:26:52.800Z,80.57
2023-04-22T14:29:19.895Z,79.99
2023-04-22T14:31:46.454Z,80.93
2023-04-22T14:34:13.223Z,82.58
2023-04-22T14:36:39.718Z,83.37
2023-04-22T14:39:06.155Z,83.08
2023-04-22T14:41:32.632Z,83.27
2023-04-22T14:43:59.078Z,82.57
2023-04-22T14:46:25.709Z,82.90
2023-04-22T14:48:52.146Z,81.40
2023-04-22T14:51:18.609Z,80.58
2023-04-22T14:53:45.162Z,81.91
2023-04-22T14:56:11.991Z,79.45
2023-04-22T14:58:38.600Z,78.34
2023-04-22T15:01:07.401Z,79.69
2023-04-22T15:03:35.833Z,78.91
2023-04-22T15:06:02.587Z,78.98
2023-04-22T15:08:28.993Z,78.70
2023-04-22T15:10:55.685Z,80.04
2023-04-22T15:13:22.194Z,77.23
2023-04-22T15:15:48.709Z,75.89
2023-04-22T15:18:15.166Z,75.62
2023-04-22T15:20:41.714Z,76.01
2023-04-22T15:23:08.122Z,75.86
2023-04-22T15:25:35.674Z,75.72
2023-04-22T15:28:02.631Z,75.16
2023-04-22T15:30:29.084Z,75.81
2023-04-22T15:32:55.706Z,76.96
2023-04-22T15:35:23.742Z,76.33
2023-04-22T15:37:50.363Z,75.17
2023-04-22T15:40:16.811Z,76.98
2023-04-22T15:42:43.336Z,77.48
2023-04-22T15:45:10.182Z,76.36
2023-04-22T15:47:37.977Z,77.17
2023-04-22T15:50:09.038Z,78.71
2023-04-22T15:52:37.501Z,78.31
2023-04-22T15:55:05.163Z,79.61
2023-04-22T15:57:34.472Z,80.48
2023-04-22T16:00:13.719Z,81.17
2023-04-22T16:02:41.869Z,81.94
2023-04-22T16:05:08.757Z,83.02
2023-04-22T16:07:35.440Z,82.85
2023-04-22T16:10:02.352Z,83.77
2023-04-22T16:12:28.838Z,81.89
2023-04-22T16:14:55.263Z,82.24
2023-04-22T16:17:21.773Z,81.80
2023-04-22T16:19:48.814Z,82.86
2023-04-22T16:22:15.205Z,84.03
2023-04-22T16:24:43.992Z,82.34
2023-04-22T16:27:15.982Z,83.62
2023-04-22T16:29:42.620Z,84.58
2023-04-22T16:32:09.583Z,85.35
2023-04-22T16:34:36.795Z,87.18
2023-04-22T16:37:04.172Z,87.20
2023-04-22T16:39:31.092Z,87.44
2023-04-22T16:41:57.570Z,88.32
2023-04-22T16:44:23.978Z,88.06
2023-04-22T16:46:50.378Z,87.75
2023-04-22T16:49:16.777Z,88.28
2023-04-22T16:51:43.146Z,89.24
2023-04-22T16:54:09.622Z,89.55
2023-04-22T16:56:36.111Z,89.38
2023-04-22T16:59:02.501Z,89.44
2023-04-22T17:01:29.964Z,89.79
2023-04-22T17:03:57.073Z,90.02
2023-04-22T17:06:24.208Z,90.54
2023-04-22T17:08:52.454Z,91.18
2023-04-22T17:11:19.082Z,91.48
2023-04-22T17:13:45.628Z,92.38
2023-04-22T17:16:12.073Z,93.22
2023-04-22T17:18:38.494Z,93.92
2023-04-22T17:21:04.943Z,94.40
2023-04-22T17:23:31.728Z,95.04
2023-04-22T17:25:59.434Z,95.59
2023-04-22T17:28:26.493Z,95.81
2023-04-22T17:30:53.167Z,96.47
2023-04-22T17:33:19.693Z,96.72
2023-04-22T17:35:46.118Z,97.46
2023-04-22T17:38:14.084Z,97.76
2023-04-22T17:40:40.668Z,97.00
2023-04-22T17:43:07.093Z,97.65
2023-04-22T17:45:33.627Z,97.37
2023-04-22T17:48:00.061Z,97.92
2023-04-22T17:50:26.594Z,98.17
2023-04-22T17:52:53.113Z,98.56
2023-04-22T17:55:19.567Z,99.01
2023-04-22T17:57:45.964Z,99.45
2023-04-22T18:00:16.888Z,99.55
2023-04-22T18:02:43.586Z,100.00
2023-04-22T18:05:10.281Z,99.67
2023-04-22T18:07:36.711Z,99.84
2023-04-22T18:10:03.249Z,100.00
2023-04-22T18:12:30.824Z,99.91
2023-04-22T18:14:57.944Z,99.81
2023-04-22T18:17:24.435Z,99.85
2023-04-22T18:19:51.224Z,99.49
2023-04-22T18:22:18.750Z,99.36
2023-04-22T18:24:45.221Z,99.17
2023-04-22T18:27:11.606Z,98.87
2023-04-22T18:29:38.481Z,99.20
2023-04-22T18:32:05.235Z,99.27
2023-04-22T18:34:31.756Z,99.10
2023-04-22T18:36:58.162Z,99.36
2023-04-22T18:39:24.677Z,99.52
2023-04-22T18:41:51.773Z,100.00
2023-04-22T18:44:19.206Z,100.00
2023-04-22T18:46:45.754Z,100.00
2023-04-22T18:49:12.143Z,100.00
2023-04-22T18:51:39.957Z,100.00
2023-04-22T18:54:08.277Z,100.00
2023-04-22T18:56:34.752Z,100.00
2023-04-22T18:59:01.148Z,100.00
2023-04-22T19:01:28.201Z,100.00
2023-04-22T19:03:54.751Z,100.00
2023-04-22T19:06:21.228Z,100.00
2023-04-22T19:08:48.740Z,100.00
2023-04-22T19:11:17.029Z,100.00
2023-04-22T19:13:44.271Z,100.00
2023-04-22T19:16:11.008Z,100.00
2023-04-22T19:18:38.545Z,100.00
2023-04-22T19:21:06.826Z,100.00
2023-04-22T19:23:34.332Z,100.00
2023-04-22T19:26:01.852Z,100.00
2023-04-22T19:28:28.644Z,100.00
2023-04-22T19:30:55.513Z,100.00
2023-04-22T19:33:21.986Z,100.00
2023-04-22T19:35:48.382Z,100.00
2023-04-22T19:38:18.957Z,100.00
2023-04-22T19:40:48.517Z,100.00
2023-04-22T19:43:16.939Z,100.00
2023-04-22T19:45:43.391Z,100.00
2023-04-22T19:48:10.534Z,100.00
2023-04-22T19:50:37.214Z,100.00
2023-04-22T19:53:04.597Z,100.00
2023-04-22T19:55:33.614Z,100.00
2023-04-22T19:58:00.658Z,100.00
2023-04-22T20:00:27.229Z,100.00
2023-04-22T20:02:54.077Z,100.00
2023-04-22T20:05:22.108Z,100.00
2023-04-22T20:07:49.748Z,100.00
2023-04-22T20:10:16.661Z,100.00
2023-04-22T20:12:47.278Z,100.00
2023-04-22T20:15:14.025Z,100.00
2023-04-22T20:17:40.851Z,100.00
2023-04-22T20:20:14.626Z,100.00
2023-04-22T20:22:42.781Z,100.00
2023-04-22T20:25:14.253Z,100.00
2023-04-22T20:27:41.617Z,100.00
2023-04-22T20:30:09.878Z,100.00
2023-04-22T20:32:38.882Z,100.00
2023-04-22T20:35:06.753Z,100.00
2023-04-22T20:37:35.963Z,100.00
2023-04-22T20:40:04.826Z,100.00
2023-04-22T20:42:33.211Z,100.00
2023-04-22T20:45:05.298Z,100.00
2023-04-22T20:47:31.872Z,100.00
2023-04-22T20:49:59.001Z,100.00
2023-04-22T20:52:25.496Z,100.00
2023-04-22T20:54:55.134Z,100.00
2023-04-22T20:57:21.656Z,100.00
2023-04-22T20:59:48.113Z,100.00
2023-04-22T21:02:16.759Z,100.00
2023-04-22T21:04:43.635Z,100.00
2023-04-22T21:07:14.243Z,100.00
2023-04-22T21:09:41.557Z,100.00
2023-04-22T21:12:10.311Z,100.00
2023-04-22T21:14:43.123Z,100.00
2023-04-22T21:17:19.912Z,100.00
2023-04-22T21:19:48.709Z,100.00
2023-04-22T21:22:18.872Z,100.00
2023-04-22T21:24:48.111Z,100.00
2023-04-22T21:27:15.647Z,100.00
2023-04-22T21:29:42.322Z,100.00
2023-04-22T21:32:11.683Z,100.00
2023-04-22T21:34:38.378Z,100.00
2023-04-22T21:37:05.659Z,100.00
2023-04-22T21:39:32.536Z,100.00
2023-04-22T21:41:59.033Z,100.00
2023-04-22T21:44:25.537Z,100.00
2023-04-22T21:46:52.066Z,100.00
2023-04-22T21:49:20.422Z,100.00
2023-04-22T21:51:47.018Z,100.00
2023-04-22T21:54:13.457Z,100.00
2023-04-22T21:56:39.918Z,100.00
2023-04-22T21:59:06.543Z,100.00
2023-04-22T22:01:33.058Z,100.00
2023-04-22T22:03:59.541Z,100.00
2023-04-22T22:06:26.805Z,100.00
2023-04-22T22:08:53.391Z,100.00
2023-04-22T22:11:30.219Z,100.00
2023-04-22T22:13:58.329Z,100.00
2023-04-22T22:16:25.592Z,100.00
2023-04-22T22:18:52.565Z,100.00
2023-04-22T22:21:19.097Z,100.00
2023-04-22T22:23:45.501Z,100.00
2023-04-22T22:26:12.007Z,100.00
2023-04-22T22:28:39.066Z,100.00
2023-04-22T22:31:05.746Z,100.00
2023-04-22T22:33:32.222Z,100.00
2023-04-22T22:35:58.682Z,100.00
2023-04-22T22:38:25.369Z,100.00
2023-04-22T22:40:51.886Z,100.00
2023-04-22T22:43:18.269Z,100.00
2023-04-22T22:46:21.794Z,100.00
2023-04-22T22:48:48.491Z,100.00
2023-04-22T22:51:18.340Z,100.00
2023-04-22T22:53:45.153Z,100.00
2023-04-22T22:56:11.651Z,100.00
2023-04-22T22:58:38.224Z,100.00
2023-04-22T23:01:05.503Z,100.00
2023-04-22T23:03:32.444Z,100.00
2023-04-22T23:05:58.947Z,100.00
2023-04-22T23:08:25.306Z,100.00
2023-04-22T23:10:51.683Z,100.00
2023-04-22T23:13:18.202Z,100.00
2023-04-22T23:15:44.945Z,100.00
2023-04-22T23:18:13.218Z,100.00
2023-04-22T23:20:41.647Z,100.00
2023-04-22T23:23:08.739Z,100.00
2023-04-22T23:25:35.409Z,100.00
2023-04-22T23:28:02.397Z,100.00
2023-04-22T23:30:29.244Z,100.00
2023-04-22T23:32:57.332Z,100.00
2023-04-22T23:35:27.095Z,100.00
2023-04-22T23:37:53.927Z,100.00
2023-04-22T23:40:20.847Z,100.00
2023-04-22T23:42:47.443Z,100.00
2023-04-22T23:45:13.974Z,100.00
2023-04-22T23:47:40.837Z,100.00
2023-04-22T23:50:08.073Z,100.00
2023-04-22T23:52:40.582Z,100.00
2023-04-22T23:55:11.916Z,100.00
2023-04-22T23:57:38.905Z,100.00
